Time;durP1;ratioP1;P1;durP2;ratioP2;P2;SDS_P1;SDS_P2;PMS_P1;PMS_P2;Temp;Humidity;BMP_temperature;BMP_pressure;BME280_temperature;BME280_humidity;BME280_pressure;Samples;Min_cycle;Max_cycle;Signal;HPM_P1;HPM_P2
2023/09/16 00:02:06;;;;;;;8.50;4.57;;;;;;;17.29;72.36;101512.94;5054537;27;96797;-28
2023/09/16 00:04:32;;;;;;;8.93;4.68;;;;;;;17.26;72.25;101511.31;5054218;27;97842;-27
2023/09/16 00:06:57;;;;;;;7.35;4.55;;;;;;;17.23;72.26;101505.22;5054394;27;97777;-27
2023/09/16 00:09:23;;;;;;;10.30;4.75;;;;;;;17.22;72.25;101492.53;5055615;27;96430;-27
2023/09/16 00:11:49;;;;;;;7.53;4.57;;;;;;;17.16;73.18;101488.38;5039827;27;96784;-27
2023/09/16 00:14:18;;;;;;;10.15;5.15;;;;;;;17.19;72.30;101510.94;5057668;27;98049;-28
2023/09/16 00:16:44;;;;;;;10.98;5.07;;;;;;;17.18;72.91;101511.03;5039667;27;100801;-27
2023/09/16 00:19:10;;;;;;;9.95;4.85;;;;;;;17.18;72.65;101514.69;5056627;27;96525;-29
2023/09/16 00:21:35;;;;;;;10.23;5.15;;;;;;;17.16;72.94;101513.03;5058194;27;96829;-31
2023/09/16 00:24:00;;;;;;;10.93;5.38;;;;;;;17.10;72.50;101508.91;5057334;27;97326;-28
2023/09/16 00:26:27;;;;;;;7.68;5.05;;;;;;;17.12;73.09;101506.06;5057384;27;99373;-27
2023/09/16 00:28:52;;;;;;;8.32;5.15;;;;;;;17.14;73.10;101512.31;5057556;27;96742;-27
2023/09/16 00:31:18;;;;;;;8.77;4.93;;;;;;;17.09;72.90;101501.72;5057591;27;96524;-27
2023/09/16 00:33:43;;;;;;;8.77;5.00;;;;;;;17.10;73.13;101500.69;5057910;27;97381;-27
2023/09/16 00:36:09;;;;;;;7.63;4.85;;;;;;;17.09;72.91;101507.19;5057412;27;96518;-27
2023/09/16 00:38:34;;;;;;;8.80;4.78;;;;;;;17.07;72.94;101500.97;5057979;27;96605;-29
2023/09/16 00:41:00;;;;;;;10.60;4.78;;;;;;;17.12;73.14;101508.81;5058024;27;96748;-27
2023/09/16 00:43:25;;;;;;;10.00;5.03;;;;;;;17.11;73.37;101501.56;5056882;27;98025;-28
2023/09/16 00:45:51;;;;;;;9.40;5.35;;;;;;;17.10;73.46;101505.31;5038779;27;101325;-28
2023/09/16 00:48:18;;;;;;;12.05;5.43;;;;;;;17.09;73.17;101507.19;5057016;27;96661;-27
2023/09/16 00:50:45;;;;;;;10.60;4.90;;;;;;;17.10;73.27;101511.66;5057771;27;96686;-27
2023/09/16 00:53:12;;;;;;;8.30;5.13;;;;;;;17.05;72.72;101504.81;5038672;27;101203;-27
2023/09/16 00:55:38;;;;;;;9.05;5.10;;;;;;;17.06;73.34;101501.94;5038464;27;101243;-28
2023/09/16 00:58:04;;;;;;;11.20;5.45;;;;;;;17.05;73.21;101507.53;5055972;27;96670;-27
2023/09/16 01:00:30;;;;;;;9.35;5.47;;;;;;;17.02;72.81;101503.19;5057333;27;96816;-28
2023/09/16 01:02:57;;;;;;;10.35;5.90;;;;;;;17.01;73.33;101506.03;5056754;27;97505;-27
2023/09/16 01:05:23;;;;;;;10.55;5.45;;;;;;;16.97;73.04;101503.53;5038848;27;101006;-27
2023/09/16 01:07:50;;;;;;;11.02;6.07;;;;;;;16.97;72.80;101495.34;5057405;27;96462;-27
2023/09/16 01:10:20;;;;;;;8.65;5.63;;;;;;;16.98;72.95;101504.41;5057215;27;96727;-27
2023/09/16 01:12:48;;;;;;;11.88;6.32;;;;;;;16.95;73.66;101504.66;5056349;27;100038;-28
2023/09/16 01:15:16;;;;;;;10.00;5.65;;;;;;;16.99;73.78;101497.94;5038485;27;101380;-27
2023/09/16 01:18:12;;;;;;;9.52;5.68;;;;;;;16.97;73.54;101492.59;5057089;27;96636;-27
2023/09/16 01:20:39;;;;;;;9.52;5.18;;;;;;;16.94;73.50;101483.75;5037754;27;96734;-28
2023/09/16 01:23:05;;;;;;;12.68;5.82;;;;;;;16.94;73.46;101478.25;5038174;27;101003;-27
2023/09/16 01:25:31;;;;;;;11.30;5.28;;;;;;;17.02;73.65;101481.28;5038249;27;101188;-28
2023/09/16 01:27:56;;;;;;;8.65;5.45;;;;;;;17.04;73.14;101484.78;5057181;27;96529;-27
2023/09/16 01:30:28;;;;;;;11.50;5.53;;;;;;;17.02;73.89;101474.91;5057009;27;96981;-28
2023/09/16 01:32:53;;;;;;;;;;;;;;;17.04;74.14;101483.88;5057491;27;97434;-27
2023/09/16 01:35:21;;;;;;;10.43;5.33;;;;;;;16.99;73.52;101478.78;5056630;27;97252;-28
2023/09/16 01:37:50;;;;;;;9.48;5.72;;;;;;;17.02;73.69;101484.03;5037948;27;96598;-28
2023/09/16 01:40:16;;;;;;;10.90;6.40;;;;;;;16.95;73.89;101477.28;5038383;27;96831;-27
2023/09/16 01:42:42;;;;;;;10.88;6.18;;;;;;;16.97;73.64;101480.75;5037982;27;101163;-27
2023/09/16 01:45:10;;;;;;;10.48;5.60;;;;;;;16.94;74.20;101478.25;5037310;27;100940;-27
2023/09/16 01:47:36;;;;;;;11.20;5.57;;;;;;;16.97;74.13;101488.97;5055234;27;96675;-27
2023/09/16 01:50:02;;;;;;;11.00;5.55;;;;;;;16.87;74.27;101468.78;5056426;27;96785;-27
2023/09/16 01:52:27;;;;;;;11.52;6.00;;;;;;;16.89;74.34;101480.50;5037918;27;101070;-27
2023/09/16 01:54:52;;;;;;;15.77;7.20;;;;;;;16.89;74.14;101485.97;5056619;27;97787;-27
2023/09/16 01:57:18;;;;;;;11.65;6.25;;;;;;;16.86;74.67;101489.81;5056358;27;96711;-27
2023/09/16 01:59:43;;;;;;;12.05;6.93;;;;;;;16.83;74.44;101479.13;5056489;27;96775;-27
2023/09/16 02:02:08;;;;;;;14.25;6.35;;;;;;;16.78;74.82;101473.09;5055653;27;97686;-27
2023/09/16 02:04:34;;;;;;;12.30;6.80;;;;;;;16.82;75.12;101482.81;5055705;27;97801;-29
2023/09/16 02:06:59;;;;;;;9.93;5.72;;;;;;;16.75;75.12;101476.06;5056450;27;96470;-27
2023/09/16 02:09:25;;;;;;;11.77;6.35;;;;;;;16.79;74.75;101485.81;5056355;27;97022;-27
2023/09/16 02:11:50;;;;;;;12.40;5.95;;;;;;;16.67;75.17;101478.53;5055611;27;98890;-33
2023/09/16 02:14:18;;;;;;;12.32;6.53;;;;;;;16.67;75.31;101473.91;5055842;27;98243;-31
2023/09/16 02:16:46;;;;;;;12.32;6.43;;;;;;;16.68;75.51;101489.34;5037700;27;96585;-27
2023/09/16 02:19:11;;;;;;;10.73;6.60;;;;;;;16.66;75.61;101476.75;5055911;27;97020;-27
2023/09/16 02:21:37;;;;;;;11.50;6.72;;;;;;;16.65;75.48;101489.56;5055735;27;98035;-27
2023/09/16 02:24:03;;;;;;;14.52;6.90;;;;;;;16.64;75.35;101486.97;5037401;27;101158;-27
2023/09/16 02:26:28;;;;;;;11.30;6.82;;;;;;;16.62;75.52;101492.56;5055385;27;96824;-27
2023/09/16 02:28:54;;;;;;;16.55;7.25;;;;;;;16.61;75.59;101495.41;5056034;27;96837;-27
2023/09/16 02:31:19;;;;;;;10.77;6.97;;;;;;;16.55;76.13;101491.28;5055754;27;98062;-28
2023/09/16 02:33:44;;;;;;;12.10;7.00;;;;;;;16.53;76.23;101485.06;5054882;27;97906;-27
2023/09/16 02:36:10;;;;;;;13.95;6.45;;;;;;;16.50;76.07;101483.44;5055572;27;96625;-27
2023/09/16 02:38:35;;;;;;;11.73;6.97;;;;;;;16.49;76.16;101481.69;5055795;27;96719;-27
2023/09/16 02:41:04;;;;;;;11.45;6.32;;;;;;;16.43;76.87;101476.69;5055385;27;98041;-28
2023/09/16 02:43:30;;;;;;;12.82;7.10;;;;;;;16.43;76.57;101473.09;5037077;27;99364;-29
2023/09/16 02:45:56;;;;;;;12.95;7.13;;;;;;;16.44;76.69;101491.22;5037363;27;96759;-28
2023/09/16 02:48:21;;;;;;;15.07;7.65;;;;;;;16.41;76.89;101486.84;5054130;27;96897;-28
2023/09/16 02:50:47;;;;;;;14.93;7.15;;;;;;;16.35;76.83;101481.84;5054843;27;97387;-27
2023/09/16 02:53:13;;;;;;;13.98;6.53;;;;;;;16.37;76.74;101482.59;5036934;27;101419;-27
2023/09/16 02:55:38;;;;;;;14.60;7.05;;;;;;;16.36;77.25;101483.59;5055463;27;96629;-28
2023/09/16 02:58:04;;;;;;;12.65;7.53;;;;;;;16.27;77.13;101476.97;5055301;27;96837;-27
2023/09/16 03:00:30;;;;;;;12.00;7.00;;;;;;;16.31;77.44;101486.69;5055326;27;97400;-27
2023/09/16 03:02:56;;;;;;;15.20;7.25;;;;;;;16.27;77.29;101476.09;5054578;27;99213;-28
2023/09/16 03:05:21;;;;;;;13.30;7.68;;;;;;;16.28;77.44;101477.81;5037141;27;96596;-28
2023/09/16 03:07:48;;;;;;;13.25;7.93;;;;;;;16.22;77.27;101465.50;5055902;27;96806;-27
2023/09/16 03:10:14;;;;;;;12.88;7.85;;;;;;;16.25;76.96;101476.19;5036584;27;101281;-27
2023/09/16 03:12:39;;;;;;;12.05;7.30;;;;;;;16.22;77.43;101470.97;5055080;27;97464;-28
2023/09/16 03:15:05;;;;;;;12.20;7.32;;;;;;;16.20;77.27;101477.56;5054983;27;96682;-27
2023/09/16 03:17:31;;;;;;;15.15;7.78;;;;;;;16.18;77.65;101463.13;5036314;27;96835;-27
2023/09/16 03:19:56;;;;;;;14.45;7.47;;;;;;;16.17;78.13;101462.25;5054979;27;97482;-27
2023/09/16 03:22:22;;;;;;;11.15;6.93;;;;;;;16.16;77.73;101454.16;5054961;27;97985;-28
2023/09/16 03:24:48;;;;;;;10.63;7.05;;;;;;;16.17;77.91;101455.91;5055134;27;96638;-27
2023/09/16 03:27:13;;;;;;;16.95;7.90;;;;;;;16.16;78.24;101455.06;5055288;27;96649;-27
2023/09/16 03:29:38;;;;;;;14.82;7.35;;;;;;;16.15;77.93;101456.03;5054484;27;97420;-27
2023/09/16 03:32:04;;;;;;;11.60;7.97;;;;;;;16.12;78.52;101459.88;5054921;27;97844;-29
2023/09/16 03:34:29;;;;;;;12.93;8.15;;;;;;;16.08;78.66;101446.53;5054827;27;96481;-28
2023/09/16 03:36:54;;;;;;;15.60;8.40;;;;;;;16.08;78.18;101450.16;5055020;27;96832;-27
2023/09/16 03:39:20;;;;;;;11.88;7.47;;;;;;;16.09;78.59;101449.16;5054455;27;97280;-27
2023/09/16 03:41:45;;;;;;;13.98;7.60;;;;;;;16.03;78.60;101448.75;5054757;27;98125;-27
2023/09/16 03:44:12;;;;;;;12.07;8.02;;;;;;;16.02;78.35;101452.50;5055186;27;96666;-27
2023/09/16 03:46:39;;;;;;;14.65;7.18;;;;;;;15.99;78.91;101448.09;5040023;27;96805;-27
2023/09/16 03:49:05;;;;;;;11.88;7.75;;;;;;;15.96;79.11;101447.47;5039701;27;100188;-27
2023/09/16 03:51:32;;;;;;;11.85;7.32;;;;;;;15.97;79.01;101450.09;5039655;27;101334;-29
2023/09/16 03:53:58;;;;;;;14.27;7.32;;;;;;;15.94;78.77;101450.31;5058459;27;96672;-29
2023/09/16 03:56:23;;;;;;;14.55;8.52;;;;;;;15.89;79.09;101447.91;5058696;27;96790;-27
2023/09/16 03:58:49;;;;;;;14.75;9.20;;;;;;;15.94;79.01;101450.31;5058099;27;97896;-28
2023/09/16 04:01:14;;;;;;;15.85;8.18;;;;;;;15.91;79.22;101453.28;5057876;27;97387;-27
2023/09/16 04:03:40;;;;;;;13.27;7.90;;;;;;;15.85;79.44;101442.78;5057392;27;96634;-28
2023/09/16 04:06:05;;;;;;;12.82;7.53;;;;;;;15.87;79.24;101449.00;5058273;27;96793;-28
2023/09/16 04:08:31;;;;;;;13.07;7.38;;;;;;;15.84;79.14;101447.38;5057958;27;97868;-28
2023/09/16 04:10:56;;;;;;;12.63;7.35;;;;;;;15.80;79.81;101450.47;5057829;27;97780;-28
2023/09/16 04:13:22;;;;;;;13.05;8.48;;;;;;;15.80;79.82;101448.63;5039663;27;96622;-27
2023/09/16 04:15:49;;;;;;;12.60;8.32;;;;;;;15.77;79.78;101447.97;5039493;27;96957;-27
2023/09/16 04:18:14;;;;;;;13.95;7.78;;;;;;;15.74;79.47;101442.72;5039325;27;101265;-27
2023/09/16 04:20:39;;;;;;;14.27;7.88;;;;;;;15.75;79.89;101450.78;5058230;27;96849;-27
2023/09/16 04:23:05;;;;;;;12.50;7.72;;;;;;;15.75;79.72;101452.66;5058171;27;96649;-28
2023/09/16 04:25:31;;;;;;;13.88;8.20;;;;;;;15.67;80.33;101443.13;5057930;27;96776;-27
2023/09/16 04:27:57;;;;;;;12.70;7.90;;;;;;;15.73;80.15;101463.72;5055576;27;100893;-28
2023/09/16 04:30:22;;;;;;;12.07;7.85;;;;;;;15.65;80.32;101445.09;5057079;27;97800;-28
2023/09/16 04:32:48;;;;;;;13.68;8.63;;;;;;;15.66;80.39;101448.72;5057943;27;96479;-27
2023/09/16 04:35:13;;;;;;;14.85;8.40;;;;;;;15.59;80.32;101444.69;5057501;27;96870;-27
2023/09/16 04:37:38;;;;;;;12.38;7.50;;;;;;;15.54;80.35;101442.31;5057462;27;97346;-27
2023/09/16 04:40:11;;;;;;;12.77;7.88;;;;;;;15.53;80.28;101443.28;5057526;27;97760;-28
2023/09/16 04:42:37;;;;;;;16.15;7.97;;;;;;;15.53;80.56;101454.19;5039493;27;96777;-28
2023/09/16 04:45:04;;;;;;;16.00;9.23;;;;;;;15.52;80.59;101444.28;5038914;27;96763;-29
2023/09/16 04:47:29;;;;;;;16.35;8.48;;;;;;;15.51;80.71;101445.25;5038699;27;100852;-27
2023/09/16 04:49:54;;;;;;;11.60;6.95;;;;;;;15.49;80.67;101439.03;5057537;27;97284;-27
2023/09/16 04:52:20;;;;;;;13.60;7.63;;;;;;;15.46;80.63;101434.66;5056897;27;96786;-27
2023/09/16 04:54:45;;;;;;;13.43;8.57;;;;;;;15.40;80.75;101428.78;5057326;27;96757;-27
2023/09/16 04:57:11;;;;;;;16.77;8.05;;;;;;;15.43;80.88;101437.63;5056844;27;99384;-28
2023/09/16 04:59:36;;;;;;;17.75;8.20;;;;;;;15.36;81.15;101432.72;5056947;27;97830;-28
2023/09/16 05:02:02;;;;;;;14.02;7.70;;;;;;;15.37;81.40;101423.53;5057320;27;96577;-28
2023/09/16 05:04:27;;;;;;;13.93;7.63;;;;;;;15.36;80.98;101432.72;5057111;27;96711;-28
2023/09/16 05:06:53;;;;;;;14.15;8.10;;;;;;;15.31;80.76;101424.00;5056895;27;99381;-28
2023/09/16 05:09:21;;;;;;;17.25;7.75;;;;;;;15.34;81.28;101431.94;5057338;27;97368;-27
2023/09/16 05:11:46;;;;;;;14.00;8.05;;;;;;;15.28;80.94;101425.97;5039004;27;96574;-28
2023/09/16 05:14:12;;;;;;;12.80;7.78;;;;;;;15.31;81.61;101426.72;5056844;27;97000;-27
2023/09/16 05:16:37;;;;;;;12.88;7.70;;;;;;;15.26;81.48;101422.47;5056010;27;98947;-27
2023/09/16 05:19:02;;;;;;;12.07;7.38;;;;;;;15.27;81.48;101435.13;5056816;27;97775;-27
2023/09/16 05:21:28;;;;;;;10.68;6.95;;;;;;;15.31;81.50;101434.91;5057191;27;96692;-28
2023/09/16 05:23:53;;;;;;;14.10;7.43;;;;;;;15.29;81.96;101437.75;5057345;27;96801;-27
2023/09/16 05:26:19;;;;;;;12.52;7.95;;;;;;;15.33;81.37;101438.41;5056394;27;99489;-27
2023/09/16 05:28:44;;;;;;;11.35;7.68;;;;;;;15.35;81.78;101447.34;5056179;27;99338;-27
2023/09/16 05:31:10;;;;;;;13.95;8.65;;;;;;;15.34;82.08;101442.88;5057006;27;96682;-28
2023/09/16 05:33:35;;;;;;;13.98;8.07;;;;;;;15.35;81.85;101447.34;5057116;27;97009;-28
2023/09/16 05:36:00;;;;;;;14.23;8.07;;;;;;;15.33;82.14;101446.59;5056672;27;97340;-27
2023/09/16 05:38:26;;;;;;;12.73;7.72;;;;;;;15.28;82.12;101441.47;5056591;27;97909;-27
2023/09/16 05:40:51;;;;;;;16.80;8.30;;;;;;;15.32;82.15;101448.44;5056291;27;96423;-27
2023/09/16 05:43:16;;;;;;;13.98;8.70;;;;;;;15.28;82.04;101445.06;5056492;27;96774;-27
2023/09/16 05:45:42;;;;;;;12.98;8.13;;;;;;;15.29;82.27;101446.78;5055974;27;99813;-28
2023/09/16 05:48:07;;;;;;;14.57;8.23;;;;;;;15.31;81.59;101446.69;5056092;27;99155;-28
2023/09/16 05:50:33;;;;;;;14.50;7.85;;;;;;;15.37;81.86;101456.28;5056484;27;96581;-28
2023/09/16 05:52:58;;;;;;;13.88;8.07;;;;;;;15.30;82.17;101450.41;5056592;27;96806;-27
2023/09/16 05:55:24;;;;;;;12.45;7.35;;;;;;;15.34;82.08;101448.34;5056606;27;97238;-30
2023/09/16 05:57:50;;;;;;;14.75;7.75;;;;;;;15.34;81.88;101451.06;5056492;27;97470;-29
2023/09/16 06:00:15;;;;;;;13.80;7.18;;;;;;;15.37;82.19;101445.38;5038161;27;97037;-28
2023/09/16 06:02:41;;;;;;;11.13;7.35;;;;;;;15.36;81.94;101440.91;5056779;27;96803;-29
2023/09/16 06:05:07;;;;;;;11.63;6.72;;;;;;;15.37;82.08;101445.38;5055126;27;99804;-27
2023/09/16 06:07:33;;;;;;;11.82;6.63;;;;;;;15.42;82.38;101459.56;5036891;27;100800;-28
2023/09/16 06:09:59;;;;;;;10.60;6.85;;;;;;;15.45;81.94;101464.81;5056336;27;96587;-28
2023/09/16 06:12:24;;;;;;;10.93;6.32;;;;;;;15.42;81.91;101460.47;5056113;27;96769;-27
2023/09/16 06:14:49;;;;;;;11.82;7.25;;;;;;;15.44;81.64;101463.06;5055848;27;97487;-27
2023/09/16 06:17:15;;;;;;;15.73;7.13;;;;;;;15.45;81.77;101468.41;5055475;27;99004;-28
2023/09/16 06:19:40;;;;;;;14.93;7.65;;;;;;;15.49;81.88;101477.25;5056007;27;96488;-28
2023/09/16 06:22:09;;;;;;;12.38;7.13;;;;;;;15.52;81.61;101479.78;5056428;27;96840;-28
2023/09/16 06:24:34;;;;;;;11.07;7.20;;;;;;;15.59;81.35;101483.81;5037366;27;101424;-27
2023/09/16 06:27:00;;;;;;;10.82;6.40;;;;;;;15.65;81.19;101483.34;5055201;27;99425;-27
2023/09/16 06:29:25;;;;;;;9.82;6.32;;;;;;;15.65;81.10;101486.06;5055342;27;96816;-27
2023/09/16 06:31:50;;;;;;;10.98;6.88;;;;;;;15.77;81.12;101484.34;5056096;27;96857;-27
2023/09/16 06:34:16;;;;;;;10.48;6.50;;;;;;;15.89;80.42;101490.75;5055734;27;97445;-27
2023/09/16 06:36:41;;;;;;;10.60;6.63;;;;;;;15.98;80.40;101487.34;5055310;27;99172;-27
2023/09/16 06:39:07;;;;;;;13.10;6.85;;;;;;;16.05;80.25;101479.56;5055772;27;96496;-27
2023/09/16 06:41:33;;;;;;;11.45;6.78;;;;;;;16.17;79.70;101484.13;5037250;27;96840;-27
2023/09/16 06:43:59;;;;;;;12.15;6.53;;;;;;;16.26;79.31;101474.38;5036391;27;101414;-27
2023/09/16 06:46:24;;;;;;;11.77;6.75;;;;;;;16.41;78.67;101475.06;5037319;27;100704;-27
2023/09/16 06:48:49;;;;;;;11.32;7.03;;;;;;;16.52;79.12;101472.38;5055807;27;96537;-27
2023/09/16 06:51:15;;;;;;;12.02;6.90;;;;;;;16.67;78.72;101481.25;5055512;27;96855;-27
2023/09/16 06:53:40;;;;;;;11.10;6.93;;;;;;;16.78;77.87;101478.56;5054810;27;97391;-27
2023/09/16 06:56:05;;;;;;;14.02;7.20;;;;;;;16.96;77.78;101477.16;5055143;27;98264;-28
2023/09/16 06:58:31;;;;;;;14.27;7.07;;;;;;;17.12;77.05;101471.34;5055423;27;96613;-28
2023/09/16 07:00:56;;;;;;;13.35;6.38;;;;;;;17.31;76.62;101478.09;5055503;27;96824;-27
2023/09/16 07:03:22;;;;;;;13.38;7.88;;;;;;;17.48;76.49;101471.25;5036398;27;98107;-27
2023/09/16 07:05:48;;;;;;;11.38;6.70;;;;;;;17.67;76.00;101487.09;5055240;27;97356;-27
2023/09/16 07:08:18;;;;;;;9.82;6.45;;;;;;;17.81;75.29;101481.38;5037175;27;96513;-27
2023/09/16 07:10:44;;;;;;;14.93;7.00;;;;;;;17.93;75.34;101479.50;5055570;27;96691;-27
2023/09/16 07:13:09;;;;;;;11.05;7.07;;;;;;;18.10;75.18;101483.59;5055005;27;97896;-27
2023/09/16 07:15:35;;;;;;;10.43;6.40;;;;;;;18.21;74.03;101478.03;5054903;27;99285;-28
2023/09/16 07:18:01;;;;;;;13.10;7.18;;;;;;;18.34;73.90;101480.66;5036428;27;96635;-27
2023/09/16 07:20:26;;;;;;;16.20;7.38;;;;;;;18.46;73.73;101472.25;5055242;27;96827;-28
2023/09/16 07:22:52;;;;;;;14.75;7.03;;;;;;;18.61;72.90;101480.16;5036795;27;97413;-28
2023/09/16 07:25:18;;;;;;;12.77;7.07;;;;;;;18.72;73.21;101476.50;5054816;27;97839;-27
2023/09/16 07:27:43;;;;;;;11.45;7.30;;;;;;;18.83;72.43;101477.38;5055070;27;96514;-27
2023/09/16 07:30:09;;;;;;;11.80;6.85;;;;;;;18.97;72.54;101480.78;5054816;27;96920;-27
2023/09/16 07:32:35;;;;;;;11.45;6.50;;;;;;;19.04;71.91;101474.63;5054800;27;98046;-27
2023/09/16 07:35:01;;;;;;;13.10;7.13;;;;;;;19.15;71.67;101483.78;5036728;27;101768;-27
2023/09/16 07:37:26;;;;;;;12.25;6.82;;;;;;;19.15;71.52;101470.94;5055002;27;96526;-27
2023/09/16 07:39:53;;;;;;;12.57;6.32;;;;;;;19.30;71.76;101482.44;5055060;27;96740;-28
2023/09/16 07:42:19;;;;;;;13.13;7.00;;;;;;;19.40;71.32;101477.00;5053990;27;97962;-28
2023/09/16 07:44:44;;;;;;;11.13;6.63;;;;;;;19.54;70.70;101484.88;5053735;27;98750;-27
2023/09/16 07:47:10;;;;;;;11.15;6.38;;;;;;;19.61;70.95;101476.94;5054839;27;96568;-27
2023/09/16 07:49:35;;;;;;;11.82;6.20;;;;;;;19.79;70.40;101489.06;5054982;27;96864;-28
2023/09/16 07:52:00;;;;;;;11.20;6.78;;;;;;;19.90;70.28;101488.97;5054681;27;97334;-28
2023/09/16 07:54:26;;;;;;;27.25;6.60;;;;;;;20.08;69.82;101496.56;5054562;27;98256;-27
2023/09/16 07:56:51;;;;;;;11.48;7.05;;;;;;;20.21;69.60;101494.41;5054660;27;96658;-28
2023/09/16 07:59:20;;;;;;;11.60;6.45;;;;;;;20.31;69.13;101505.44;5054887;27;96881;-27
2023/09/16 08:01:45;;;;;;;9.10;6.07;;;;;;;20.34;69.14;101496.91;5035982;27;101548;-27
2023/09/16 08:04:10;;;;;;;13.32;6.75;;;;;;;20.44;68.77;101492.28;5054221;27;97993;-27
2023/09/16 08:06:36;;;;;;;11.75;6.35;;;;;;;20.57;68.79;101500.31;5054163;27;96668;-27
2023/09/16 08:09:01;;;;;;;10.05;6.20;;;;;;;20.70;68.29;101503.63;5054633;27;96799;-28
2023/09/16 08:11:28;;;;;;;9.52;6.35;;;;;;;20.76;68.14;101503.06;5054153;27;97139;-27
2023/09/16 08:13:53;;;;;;;10.77;6.00;;;;;;;20.88;68.10;101494.63;5035914;27;100910;-28
2023/09/16 08:16:18;;;;;;;9.82;5.88;;;;;;;21.01;67.50;101503.47;5054592;27;96524;-27
2023/09/16 08:18:44;;;;;;;13.45;6.32;;;;;;;21.12;67.42;101505.22;5054441;27;96771;-27
2023/09/16 08:21:09;;;;;;;15.70;6.65;;;;;;;21.18;66.97;101502.72;5053859;27;98870;-27
2023/09/16 08:23:35;;;;;;;10.45;6.10;;;;;;;21.22;67.00;101506.06;5051761;27;97762;-30
2023/09/16 08:26:00;;;;;;;10.40;5.70;;;;;;;21.16;67.03;101503.88;5052728;27;97046;-28
2023/09/16 08:28:30;;;;;;;10.43;6.03;;;;;;;21.23;67.22;101498.66;5053143;27;97303;-27
2023/09/16 08:30:56;;;;;;;9.73;5.97;;;;;;;21.33;67.07;101500.38;5054806;27;99465;-27
2023/09/16 08:33:21;;;;;;;13.60;6.18;;;;;;;21.42;67.05;101499.50;5057485;27;97969;-28
2023/09/16 08:35:47;;;;;;;10.20;5.95;;;;;;;21.55;65.96;101499.19;5057706;27;96501;-27
2023/09/16 08:38:12;;;;;;;9.93;5.97;;;;;;;21.61;66.01;101501.31;5057795;27;96806;-27
2023/09/16 08:40:38;;;;;;;12.45;6.45;;;;;;;21.71;65.68;101505.94;5057042;27;98532;-30
2023/09/16 08:43:33;;;;;;;13.10;6.53;;;;;;;21.72;65.80;101508.56;5055023;27;97794;-28
2023/09/16 08:46:07;;;;;;;8.30;5.38;;;;;;;21.72;66.25;101507.69;5036762;27;97166;-29
2023/09/16 08:48:38;;;;;;;12.52;6.22;;;;;;;21.72;66.37;101504.94;5037791;27;96971;-33
2023/09/16 08:51:08;;;;;;;11.82;5.60;;;;;;;21.77;66.32;101514.47;5054993;27;96814;-28
2023/09/16 08:53:36;;;;;;;12.98;6.80;;;;;;;21.90;65.82;101499.47;5036499;27;100774;-28
2023/09/16 08:56:03;;;;;;;10.85;5.97;;;;;;;22.15;65.48;101500.66;5036265;27;96741;-27
2023/09/16 08:58:34;;;;;;;12.63;5.80;;;;;;;22.40;65.50;101510.09;5038951;27;96942;-29
2023/09/16 09:00:59;;;;;;;8.02;5.10;;;;;;;22.60;64.24;101510.84;5038678;27;100955;-27
2023/09/16 09:03:25;;;;;;;12.00;6.75;;;;;;;22.78;63.99;101521.91;5056658;27;97866;-27
2023/09/16 09:05:52;;;;;;;8.52;5.68;;;;;;;22.94;63.84;101523.94;5038975;27;96913;-27
2023/09/16 09:08:18;;;;;;;10.45;5.93;;;;;;;23.04;63.02;101519.22;5057216;27;97209;-27
2023/09/16 09:10:44;;;;;;;8.82;5.57;;;;;;;23.07;62.74;101518.91;5057131;27;97392;-28
2023/09/16 09:13:12;;;;;;;8.65;5.47;;;;;;;23.30;63.19;101519.28;5038888;27;100894;-27
2023/09/16 09:15:42;;;;;;;10.75;6.03;;;;;;;23.45;63.24;101520.41;5057089;27;96517;-27
2023/09/16 09:18:08;;;;;;;11.85;5.88;;;;;;;23.59;61.89;101524.47;5038778;27;96966;-27
2023/09/16 09:20:34;;;;;;;11.48;4.97;;;;;;;23.68;61.77;101523.50;5056345;27;97855;-27
2023/09/16 09:22:59;;;;;;;8.70;4.63;;;;;;;23.83;60.72;101520.16;5056780;27;97793;-27
2023/09/16 09:25:27;;;;;;;8.73;4.88;;;;;;;23.77;59.55;101523.59;5057197;27;96431;-27
2023/09/16 09:27:57;;;;;;;9.10;5.00;;;;;;;23.75;60.96;101518.22;5038592;27;96894;-28
2023/09/16 09:30:29;;;;;;;10.55;5.47;;;;;;;23.91;60.28;101525.75;5038022;27;102506;-28
2023/09/16 09:32:56;;;;;;;7.15;4.53;;;;;;;23.90;61.07;101524.84;5055208;27;101100;-27
2023/09/16 09:35:23;;;;;;;9.48;4.63;;;;;;;23.91;58.70;101522.97;5038382;27;96746;-27
2023/09/16 09:37:49;;;;;;;8.30;4.35;;;;;;;23.91;59.80;101526.59;5056977;27;96943;-27
2023/09/16 09:40:15;;;;;;;8.55;4.70;;;;;;;24.02;59.72;101532.88;5038122;27;99040;-27
2023/09/16 09:42:52;;;;;;;9.70;4.22;;;;;;;24.17;59.63;101534.00;5036920;27;100940;-27
2023/09/16 09:45:19;;;;;;;8.20;4.57;;;;;;;24.24;59.48;101535.06;5018458;28;96695;-28
2023/09/16 09:47:47;;;;;;;6.97;4.28;;;;;;;24.31;58.89;101536.13;5016082;28;96809;-28
2023/09/16 09:50:14;;;;;;;7.03;4.28;;;;;;;24.51;58.25;101533.09;5014417;28;101079;-30
2023/09/16 09:52:54;;;;;;;8.13;3.75;;;;;;;24.62;56.69;101537.44;5015844;28;97945;-27
2023/09/16 09:55:21;;;;;;;7.93;4.03;;;;;;;24.65;58.25;101526.88;5014758;28;96748;-27
2023/09/16 09:57:50;;;;;;;8.30;4.13;;;;;;;24.72;56.45;101533.47;5014540;28;96861;-30
2023/09/16 10:00:17;;;;;;;9.80;4.22;;;;;;;24.70;56.80;101540.25;5015375;28;99867;-28
2023/09/16 10:02:44;;;;;;;8.30;3.63;;;;;;;24.80;56.75;101524.31;5014624;28;100765;-27
2023/09/16 10:05:20;;;;;;;8.60;4.25;;;;;;;24.95;56.88;101528.13;5015848;28;96661;-28
2023/09/16 10:07:47;;;;;;;8.60;4.20;;;;;;;25.02;56.15;101540.25;5014557;28;96859;-28
2023/09/16 10:10:13;;;;;;;8.60;4.20;;;;;;;24.96;54.71;101534.56;5014992;28;97966;-28
2023/09/16 10:12:40;;;;;;;7.45;4.10;;;;;;;25.06;56.46;101534.38;5015377;28;99748;-27
2023/09/16 10:15:07;;;;;;;9.00;3.80;;;;;;;25.21;53.69;101530.75;5014476;28;96465;-27
2023/09/16 10:17:32;;;;;;;9.95;4.25;;;;;;;25.32;56.01;101525.91;5015669;28;96817;-27
2023/09/16 10:19:59;;;;;;;7.25;3.80;;;;;;;25.42;55.93;101533.00;5015574;28;97273;-27
2023/09/16 10:22:25;;;;;;;9.15;3.60;;;;;;;25.49;55.20;101523.97;5013871;28;101117;-28
2023/09/16 10:24:50;;;;;;;7.40;3.95;;;;;;;25.37;54.72;101526.25;5015735;28;96511;-28
2023/09/16 10:27:27;;;;;;;6.47;3.72;;;;;;;25.40;55.10;101521.22;5015702;28;98141;-27
2023/09/16 10:29:55;;;;;;;6.57;3.47;;;;;;;25.69;56.19;101514.22;5015206;28;98066;-27
2023/09/16 10:32:21;;;;;;;7.32;3.63;;;;;;;25.81;55.46;101520.25;5013790;28;101131;-27
2023/09/16 10:34:48;;;;;;;5.97;3.53;;;;;;;25.89;54.97;101525.81;5015388;28;96647;-27
2023/09/16 10:37:17;;;;;;;5.88;2.90;;;;;;;25.96;53.59;101520.44;5013818;28;96928;-27
2023/09/16 10:39:45;;;;;;;4.90;2.50;;;;;;;25.99;53.93;101515.38;5013795;28;101109;-28
2023/09/16 10:42:12;;;;;;;4.55;2.92;;;;;;;26.00;53.32;101517.09;5015034;28;97362;-27
2023/09/16 10:44:39;;;;;;;4.53;2.78;;;;;;;26.14;51.34;101511.84;5013531;28;96886;-28
2023/09/16 10:47:06;;;;;;;5.15;3.08;;;;;;;26.38;52.09;101510.84;5013845;28;96859;-27
2023/09/16 10:49:31;;;;;;;6.35;3.13;;;;;;;26.55;51.80;101508.84;5013507;28;101319;-27
2023/09/16 10:52:03;;;;;;;7.18;3.08;;;;;;;26.66;51.13;101511.22;5015231;28;98816;-27
2023/09/16 10:54:43;;;;;;;7.90;3.25;;;;;;;26.81;51.12;101508.50;5013548;28;96668;-27
2023/09/16 10:57:17;;;;;;;8.48;2.72;;;;;;;26.90;49.58;101507.41;5015051;28;96570;-28
2023/09/16 10:59:47;;;;;;;5.82;2.80;;;;;;;27.00;50.17;101501.56;5014239;28;98944;-27
2023/09/16 11:02:36;;;;;;;5.30;3.00;;;;;;;26.96;48.27;101498.31;5013214;28;101622;-27
2023/09/16 11:05:01;;;;;;;5.63;2.85;;;;;;;27.05;50.77;101504.66;5013496;28;96964;-27
2023/09/16 11:07:27;;;;;;;5.22;3.05;;;;;;;27.20;49.12;101496.41;5015224;28;96796;-27
2023/09/16 11:09:54;;;;;;;5.28;2.78;;;;;;;27.28;50.28;101493.53;5013193;28;100813;-27
2023/09/16 11:12:21;;;;;;;5.25;2.70;;;;;;;27.29;46.57;101489.69;5013211;28;101007;-27
2023/09/16 11:14:46;;;;;;;6.40;2.80;;;;;;;27.29;48.86;101490.59;5013566;28;96665;-27
2023/09/16 11:17:15;;;;;;;4.03;2.38;;;;;;;27.01;49.66;101475.53;5015377;28;96878;-27